sensor_id;sensor_type;location;lat;lon;timestamp;P1;durP1;ratioP1;P2;durP2;ratioP2
34775;SDS011;20989;52.566;13.346;2023-02-10T00:00:32;3.55;;;3.25;;
34775;SDS011;20989;52.566;13.346;2023-02-10T00:03:33;4.13;;;3.38;;
34775;SDS011;20989;52.566;13.346;2023-02-10T00:06:34;3.90;;;3.55;;
34775;SDS011;20989;52.566;13.346;2023-02-10T00:09:35;3.28;;;3.08;;
34775;SDS011;20989;52.566;13.346;2023-02-10T00:12:36;3.38;;;3.17;;
34775;SDS011;20989;52.566;13.346;2023-02-10T00:15:37;3.83;;;3.53;;
34775;SDS011;20989;52.566;13.346;2023-02-10T00:18:38;3.35;;;3.05;;
34775;SDS011;20989;52.566;13.346;2023-02-10T00:21:39;3.75;;;3.45;;
34775;SDS011;20989;52.566;13.346;2023-02-10T00:24:39;4.10;;;3.80;;
34775;SDS011;20989;52.566;13.346;2023-02-10T00:27:40;3.28;;;2.97;;
34775;SDS011;20989;52.566;13.346;2023-02-10T00:30:40;4.00;;;3.70;;
34775;SDS011;20989;52.566;13.346;2023-02-10T00:33:41;3.20;;;2.97;;
34775;SDS011;20989;52.566;13.346;2023-02-10T00:36:42;3.10;;;2.88;;
34775;SDS011;20989;52.566;13.346;2023-02-10T00:39:43;4.22;;;3.83;;
34775;SDS011;20989;52.566;13.346;2023-02-10T00:42:45;3.53;;;3.30;;
34775;SDS011;20989;52.566;13.346;2023-02-10T00:45:46;3.15;;;2.95;;
34775;SDS011;20989;52.566;13.346;2023-02-10T00:48:46;3.97;;;3.67;;
34775;SDS011;20989;52.566;13.346;2023-02-10T00:51:47;4.03;;;3.72;;
34775;SDS011;20989;52.566;13.346;2023-02-10T00:54:48;3.80;;;3.38;;
34775;SDS011;20989;52.566;13.346;2023-02-10T00:57:48;3.78;;;3.17;;
34775;SDS011;20989;52.566;13.346;2023-02-10T01:00:49;2.90;;;2.70;;
34775;SDS011;20989;52.566;13.346;2023-02-10T01:03:50;3.53;;;3.22;;
34775;SDS011;20989;52.566;13.346;2023-02-10T01:06:50;3.60;;;3.22;;
34775;SDS011;20989;52.566;13.346;2023-02-10T01:09:51;3.10;;;2.90;;
34775;SDS011;20989;52.566;13.346;2023-02-10T01:12:52;3.60;;;3.30;;
34775;SDS011;20989;52.566;13.346;2023-02-10T01:15:52;3.25;;;2.95;;
34775;SDS011;20989;52.566;13.346;2023-02-10T01:18:53;2.90;;;2.70;;
34775;SDS011;20989;52.566;13.346;2023-02-10T01:21:53;2.80;;;2.60;;
34775;SDS011;20989;52.566;13.346;2023-02-10T01:24:54;3.00;;;2.70;;
34775;SDS011;20989;52.566;13.346;2023-02-10T01:27:55;2.67;;;2.47;;
34775;SDS011;20989;52.566;13.346;2023-02-10T01:30:55;3.13;;;2.92;;
34775;SDS011;20989;52.566;13.346;2023-02-10T01:33:56;2.70;;;2.50;;
34775;SDS011;20989;52.566;13.346;2023-02-10T01:36:56;3.05;;;2.85;;
34775;SDS011;20989;52.566;13.346;2023-02-10T01:39:57;3.35;;;3.13;;
34775;SDS011;20989;52.566;13.346;2023-02-10T01:42:58;2.70;;;2.50;;
34775;SDS011;20989;52.566;13.346;2023-02-10T01:45:58;2.88;;;2.67;;
34775;SDS011;20989;52.566;13.346;2023-02-10T01:49:00;3.03;;;2.83;;
34775;SDS011;20989;52.566;13.346;2023-02-10T01:52:22;2.95;;;2.75;;
34775;SDS011;20989;52.566;13.346;2023-02-10T01:55:28;3.03;;;2.78;;
34775;SDS011;20989;52.566;13.346;2023-02-10T01:58:34;2.75;;;2.55;;
34775;SDS011;20989;52.566;13.346;2023-02-10T02:01:35;3.40;;;3.20;;
34775;SDS011;20989;52.566;13.346;2023-02-10T02:04:37;3.03;;;2.83;;
34775;SDS011;20989;52.566;13.346;2023-02-10T02:08:18;2.88;;;2.67;;
34775;SDS011;20989;52.566;13.346;2023-02-10T02:11:24;2.80;;;2.60;;
34775;SDS011;20989;52.566;13.346;2023-02-10T02:14:36;2.90;;;2.67;;
34775;SDS011;20989;52.566;13.346;2023-02-10T02:18:12;2.90;;;2.70;;
34775;SDS011;20989;52.566;13.346;2023-02-10T02:21:42;3.10;;;2.90;;
34775;SDS011;20989;52.566;13.346;2023-02-10T02:28:01;3.30;;;3.00;;
34775;SDS011;20989;52.566;13.346;2023-02-10T02:37:42;2.42;;;2.22;;
34775;SDS011;20989;52.566;13.346;2023-02-10T02:40:45;2.83;;;2.63;;
34775;SDS011;20989;52.566;13.346;2023-02-10T02:43:45;3.58;;;2.65;;
34775;SDS011;20989;52.566;13.346;2023-02-10T02:46:50;2.72;;;2.53;;
34775;SDS011;20989;52.566;13.346;2023-02-10T02:53:39;2.70;;;2.55;;
34775;SDS011;20989;52.566;13.346;2023-02-10T02:59:57;3.13;;;2.58;;
34775;SDS011;20989;52.566;13.346;2023-02-10T03:03:04;2.75;;;2.55;;
34775;SDS011;20989;52.566;13.346;2023-02-10T03:06:06;3.17;;;2.95;;
34775;SDS011;20989;52.566;13.346;2023-02-10T03:09:07;2.78;;;2.58;;
34775;SDS011;20989;52.566;13.346;2023-02-10T03:12:07;2.35;;;2.25;;
34775;SDS011;20989;52.566;13.346;2023-02-10T03:15:08;2.70;;;2.50;;
34775;SDS011;20989;52.566;13.346;2023-02-10T03:18:09;2.83;;;2.63;;
34775;SDS011;20989;52.566;13.346;2023-02-10T03:21:10;2.85;;;2.65;;
34775;SDS011;20989;52.566;13.346;2023-02-10T03:24:11;2.88;;;2.67;;
34775;SDS011;20989;52.566;13.346;2023-02-10T03:27:11;2.88;;;2.67;;
34775;SDS011;20989;52.566;13.346;2023-02-10T03:30:12;3.13;;;2.92;;
34775;SDS011;20989;52.566;13.346;2023-02-10T03:33:13;2.80;;;2.60;;
34775;SDS011;20989;52.566;13.346;2023-02-10T03:36:14;2.50;;;2.40;;
34775;SDS011;20989;52.566;13.346;2023-02-10T03:39:14;4.15;;;2.70;;
34775;SDS011;20989;52.566;13.346;2023-02-10T03:42:15;2.70;;;2.50;;
34775;SDS011;20989;52.566;13.346;2023-02-10T03:45:15;4.03;;;2.65;;
34775;SDS011;20989;52.566;13.346;2023-02-10T03:48:16;2.20;;;2.10;;
34775;SDS011;20989;52.566;13.346;2023-02-10T03:51:17;2.67;;;2.47;;
34775;SDS011;20989;52.566;13.346;2023-02-10T03:54:17;2.78;;;2.58;;
34775;SDS011;20989;52.566;13.346;2023-02-10T03:57:18;2.75;;;2.55;;
34775;SDS011;20989;52.566;13.346;2023-02-10T04:00:18;2.63;;;2.42;;
34775;SDS011;20989;52.566;13.346;2023-02-10T04:03:19;2.92;;;2.72;;
34775;SDS011;20989;52.566;13.346;2023-02-10T04:06:20;2.90;;;2.70;;
34775;SDS011;20989;52.566;13.346;2023-02-10T04:09:20;2.92;;;2.72;;
34775;SDS011;20989;52.566;13.346;2023-02-10T04:12:21;2.97;;;2.78;;
34775;SDS011;20989;52.566;13.346;2023-02-10T04:15:22;2.85;;;2.65;;
34775;SDS011;20989;52.566;13.346;2023-02-10T04:18:22;2.60;;;2.40;;
34775;SDS011;20989;52.566;13.346;2023-02-10T04:21:23;2.88;;;2.67;;
34775;SDS011;20989;52.566;13.346;2023-02-10T04:24:24;2.72;;;2.53;;
34775;SDS011;20989;52.566;13.346;2023-02-10T04:27:25;2.67;;;2.47;;
34775;SDS011;20989;52.566;13.346;2023-02-10T04:30:25;3.35;;;2.75;;
34775;SDS011;20989;52.566;13.346;2023-02-10T04:33:26;2.60;;;2.45;;
34775;SDS011;20989;52.566;13.346;2023-02-10T04:36:27;2.40;;;2.30;;
34775;SDS011;20989;52.566;13.346;2023-02-10T04:39:28;2.55;;;2.35;;
34775;SDS011;20989;52.566;13.346;2023-02-10T04:42:28;2.53;;;2.33;;
34775;SDS011;20989;52.566;13.346;2023-02-10T04:45:32;2.40;;;2.20;;
34775;SDS011;20989;52.566;13.346;2023-02-10T04:48:32;2.95;;;2.75;;
34775;SDS011;20989;52.566;13.346;2023-02-10T04:51:34;3.53;;;2.60;;
34775;SDS011;20989;52.566;13.346;2023-02-10T04:54:35;2.50;;;2.30;;
34775;SDS011;20989;52.566;13.346;2023-02-10T04:57:35;2.40;;;2.30;;
34775;SDS011;20989;52.566;13.346;2023-02-10T05:00:38;2.50;;;2.30;;
34775;SDS011;20989;52.566;13.346;2023-02-10T05:03:39;2.10;;;2.00;;
34775;SDS011;20989;52.566;13.346;2023-02-10T05:06:40;2.80;;;2.58;;
34775;SDS011;20989;52.566;13.346;2023-02-10T05:09:41;2.70;;;2.50;;
34775;SDS011;20989;52.566;13.346;2023-02-10T05:12:41;2.72;;;2.53;;
34775;SDS011;20989;52.566;13.346;2023-02-10T05:15:42;2.80;;;2.60;;
34775;SDS011;20989;52.566;13.346;2023-02-10T05:18:43;2.80;;;2.60;;
34775;SDS011;20989;52.566;13.346;2023-02-10T05:21:44;2.53;;;2.33;;
34775;SDS011;20989;52.566;13.346;2023-02-10T05:24:44;2.63;;;2.45;;
34775;SDS011;20989;52.566;13.346;2023-02-10T05:27:45;2.30;;;2.20;;
34775;SDS011;20989;52.566;13.346;2023-02-10T05:30:46;2.30;;;2.10;;
34775;SDS011;20989;52.566;13.346;2023-02-10T05:33:48;2.97;;;2.70;;
34775;SDS011;20989;52.566;13.346;2023-02-10T05:36:48;2.58;;;2.35;;
34775;SDS011;20989;52.566;13.346;2023-02-10T05:39:50;2.47;;;2.30;;
34775;SDS011;20989;52.566;13.346;2023-02-10T05:42:50;2.58;;;2.40;;
34775;SDS011;20989;52.566;13.346;2023-02-10T05:45:51;2.85;;;2.65;;
34775;SDS011;20989;52.566;13.346;2023-02-10T05:48:51;1.95;;;1.75;;
34775;SDS011;20989;52.566;13.346;2023-02-10T05:51:52;2.47;;;2.28;;
34775;SDS011;20989;52.566;13.346;2023-02-10T05:54:53;2.83;;;2.63;;
34775;SDS011;20989;52.566;13.346;2023-02-10T05:57:53;2.03;;;1.92;;
34775;SDS011;20989;52.566;13.346;2023-02-10T06:00:54;2.80;;;2.60;;
34775;SDS011;20989;52.566;13.346;2023-02-10T06:03:54;2.30;;;2.20;;
34775;SDS011;20989;52.566;13.346;2023-02-10T06:06:56;2.42;;;2.25;;
34775;SDS011;20989;52.566;13.346;2023-02-10T06:09:56;3.10;;;2.80;;
34775;SDS011;20989;52.566;13.346;2023-02-10T06:12:57;2.42;;;2.13;;
34775;SDS011;20989;52.566;13.346;2023-02-10T06:15:57;2.47;;;2.28;;
34775;SDS011;20989;52.566;13.346;2023-02-10T06:18:58;2.15;;;2.05;;
34775;SDS011;20989;52.566;13.346;2023-02-10T06:21:59;2.95;;;2.75;;
34775;SDS011;20989;52.566;13.346;2023-02-10T06:24:59;2.97;;;2.78;;
34775;SDS011;20989;52.566;13.346;2023-02-10T06:28:00;2.38;;;2.28;;
34775;SDS011;20989;52.566;13.346;2023-02-10T06:31:00;3.03;;;2.80;;
34775;SDS011;20989;52.566;13.346;2023-02-10T06:34:01;3.15;;;2.85;;
34775;SDS011;20989;52.566;13.346;2023-02-10T06:37:02;4.93;;;4.43;;
34775;SDS011;20989;52.566;13.346;2023-02-10T06:40:03;4.90;;;3.88;;
34775;SDS011;20989;52.566;13.346;2023-02-10T06:43:05;4.85;;;4.30;;
34775;SDS011;20989;52.566;13.346;2023-02-10T06:46:06;3.85;;;3.55;;
34775;SDS011;20989;52.566;13.346;2023-02-10T06:49:07;15.00;;;4.95;;
34775;SDS011;20989;52.566;13.346;2023-02-10T06:52:07;16.05;;;4.72;;
34775;SDS011;20989;52.566;13.346;2023-02-10T06:55:08;9.18;;;3.80;;
34775;SDS011;20989;52.566;13.346;2023-02-10T06:58:08;7.35;;;3.92;;
34775;SDS011;20989;52.566;13.346;2023-02-10T07:01:11;13.30;;;4.00;;
34775;SDS011;20989;52.566;13.346;2023-02-10T07:04:13;6.10;;;3.90;;
34775;SDS011;20989;52.566;13.346;2023-02-10T07:07:13;6.60;;;3.67;;
34775;SDS011;20989;52.566;13.346;2023-02-10T07:10:14;4.65;;;2.90;;
34775;SDS011;20989;52.566;13.346;2023-02-10T07:13:14;6.18;;;3.20;;
34775;SDS011;20989;52.566;13.346;2023-02-10T07:16:15;6.50;;;3.22;;
34775;SDS011;20989;52.566;13.346;2023-02-10T07:19:16;7.90;;;3.60;;
34775;SDS011;20989;52.566;13.346;2023-02-10T07:22:17;3.17;;;2.58;;
34775;SDS011;20989;52.566;13.346;2023-02-10T07:25:18;4.63;;;2.95;;
34775;SDS011;20989;52.566;13.346;2023-02-10T07:28:19;3.90;;;3.08;;
34775;SDS011;20989;52.566;13.346;2023-02-10T07:31:19;4.60;;;3.35;;
34775;SDS011;20989;52.566;13.346;2023-02-10T07:34:20;7.30;;;3.45;;
34775;SDS011;20989;52.566;13.346;2023-02-10T07:37:21;4.72;;;3.50;;
34775;SDS011;20989;52.566;13.346;2023-02-10T07:40:21;4.40;;;3.22;;
34775;SDS011;20989;52.566;13.346;2023-02-10T07:43:22;3.65;;;2.80;;
34775;SDS011;20989;52.566;13.346;2023-02-10T07:46:23;3.55;;;3.00;;
34775;SDS011;20989;52.566;13.346;2023-02-10T07:49:23;4.88;;;3.22;;
34775;SDS011;20989;52.566;13.346;2023-02-10T07:52:26;3.47;;;2.67;;
34775;SDS011;20989;52.566;13.346;2023-02-10T07:55:27;4.78;;;3.60;;
34775;SDS011;20989;52.566;13.346;2023-02-10T07:58:27;5.97;;;3.45;;
34775;SDS011;20989;52.566;13.346;2023-02-10T08:01:29;11.02;;;3.15;;
34775;SDS011;20989;52.566;13.346;2023-02-10T08:04:31;3.60;;;3.15;;
34775;SDS011;20989;52.566;13.346;2023-02-10T08:07:32;6.13;;;3.05;;
34775;SDS011;20989;52.566;13.346;2023-02-10T08:10:33;3.50;;;3.20;;
34775;SDS011;20989;52.566;13.346;2023-02-10T08:13:33;3.70;;;3.30;;
34775;SDS011;20989;52.566;13.346;2023-02-10T08:16:34;8.60;;;3.75;;
34775;SDS011;20989;52.566;13.346;2023-02-10T08:19:34;6.57;;;3.67;;
34775;SDS011;20989;52.566;13.346;2023-02-10T08:22:36;7.80;;;4.13;;
34775;SDS011;20989;52.566;13.346;2023-02-10T08:25:37;8.23;;;3.63;;
34775;SDS011;20989;52.566;13.346;2023-02-10T08:28:38;3.90;;;3.20;;
34775;SDS011;20989;52.566;13.346;2023-02-10T08:31:39;3.97;;;3.58;;
34775;SDS011;20989;52.566;13.346;2023-02-10T08:34:40;11.35;;;4.50;;
34775;SDS011;20989;52.566;13.346;2023-02-10T08:37:40;6.03;;;4.05;;
34775;SDS011;20989;52.566;13.346;2023-02-10T08:40:41;5.78;;;3.83;;
34775;SDS011;20989;52.566;13.346;2023-02-10T08:43:42;4.55;;;3.53;;
34775;SDS011;20989;52.566;13.346;2023-02-10T08:46:43;3.88;;;3.22;;
34775;SDS011;20989;52.566;13.346;2023-02-10T08:49:44;3.95;;;3.40;;
34775;SDS011;20989;52.566;13.346;2023-02-10T08:52:44;4.70;;;3.65;;
34775;SDS011;20989;52.566;13.346;2023-02-10T08:55:54;5.88;;;3.25;;
34775;SDS011;20989;52.566;13.346;2023-02-10T08:58:59;3.95;;;3.50;;
34775;SDS011;20989;52.566;13.346;2023-02-10T09:01:59;4.05;;;3.42;;
34775;SDS011;20989;52.566;13.346;2023-02-10T09:05:00;9.85;;;3.85;;
34775;SDS011;20989;52.566;13.346;2023-02-10T09:08:01;3.65;;;3.13;;
34775;SDS011;20989;52.566;13.346;2023-02-10T09:11:04;3.72;;;2.70;;
34775;SDS011;20989;52.566;13.346;2023-02-10T09:14:05;5.00;;;2.63;;
34775;SDS011;20989;52.566;13.346;2023-02-10T09:17:07;3.85;;;3.33;;
34775;SDS011;20989;52.566;13.346;2023-02-10T09:20:08;4.75;;;2.90;;
34775;SDS011;20989;52.566;13.346;2023-02-10T09:23:10;3.80;;;3.40;;
34775;SDS011;20989;52.566;13.346;2023-02-10T09:26:10;3.92;;;3.15;;
34775;SDS011;20989;52.566;13.346;2023-02-10T09:29:11;4.80;;;3.10;;
34775;SDS011;20989;52.566;13.346;2023-02-10T09:32:12;5.82;;;3.40;;
34775;SDS011;20989;52.566;13.346;2023-02-10T09:35:13;6.18;;;3.03;;
34775;SDS011;20989;52.566;13.346;2023-02-10T09:38:14;5.20;;;3.30;;
34775;SDS011;20989;52.566;13.346;2023-02-10T09:44:23;5.32;;;4.30;;
34775;SDS011;20989;52.566;13.346;2023-02-10T09:47:31;8.90;;;4.63;;
34775;SDS011;20989;52.566;13.346;2023-02-10T09:50:50;24.52;;;5.95;;
34775;SDS011;20989;52.566;13.346;2023-02-10T09:53:53;14.20;;;4.65;;
34775;SDS011;20989;52.566;13.346;2023-02-10T09:56:54;8.75;;;4.40;;
34775;SDS011;20989;52.566;13.346;2023-02-10T09:59:55;6.93;;;4.18;;
34775;SDS011;20989;52.566;13.346;2023-02-10T10:02:57;10.95;;;3.83;;
34775;SDS011;20989;52.566;13.346;2023-02-10T10:06:16;14.20;;;3.75;;
34775;SDS011;20989;52.566;13.346;2023-02-10T10:09:43;13.27;;;3.95;;
34775;SDS011;20989;52.566;13.346;2023-02-10T10:12:45;13.32;;;3.58;;
34775;SDS011;20989;52.566;13.346;2023-02-10T10:15:50;11.10;;;3.78;;
34775;SDS011;20989;52.566;13.346;2023-02-10T10:29:30;5.28;;;3.25;;
34775;SDS011;20989;52.566;13.346;2023-02-10T10:32:52;7.82;;;2.92;;
34775;SDS011;20989;52.566;13.346;2023-02-10T10:35:59;8.40;;;3.75;;
34775;SDS011;20989;52.566;13.346;2023-02-10T10:39:14;10.40;;;3.83;;
34775;SDS011;20989;52.566;13.346;2023-02-10T10:46:06;7.68;;;3.15;;
34775;SDS011;20989;52.566;13.346;2023-02-10T10:49:11;3.67;;;2.92;;
34775;SDS011;20989;52.566;13.346;2023-02-10T10:58:38;7.40;;;3.42;;
34775;SDS011;20989;52.566;13.346;2023-02-10T11:01:43;3.70;;;2.90;;
34775;SDS011;20989;52.566;13.346;2023-02-10T11:04:45;10.48;;;3.05;;
34775;SDS011;20989;52.566;13.346;2023-02-10T11:07:59;5.18;;;3.33;;
34775;SDS011;20989;52.566;13.346;2023-02-10T11:11:01;7.47;;;2.80;;
34775;SDS011;20989;52.566;13.346;2023-02-10T11:14:12;5.03;;;2.80;;
34775;SDS011;20989;52.566;13.346;2023-02-10T11:17:24;3.92;;;2.67;;
34775;SDS011;20989;52.566;13.346;2023-02-10T11:20:32;6.00;;;3.22;;
34775;SDS011;20989;52.566;13.346;2023-02-10T11:23:36;5.30;;;2.70;;
34775;SDS011;20989;52.566;13.346;2023-02-10T11:29:58;5.97;;;3.13;;
34775;SDS011;20989;52.566;13.346;2023-02-10T11:32:59;6.65;;;3.38;;
34775;SDS011;20989;52.566;13.346;2023-02-10T11:39:05;5.32;;;2.75;;
34775;SDS011;20989;52.566;13.346;2023-02-10T11:45:31;9.27;;;2.88;;
34775;SDS011;20989;52.566;13.346;2023-02-10T11:48:32;5.10;;;2.60;;
34775;SDS011;20989;52.566;13.346;2023-02-10T11:51:33;5.25;;;2.70;;
34775;SDS011;20989;52.566;13.346;2023-02-10T11:54:34;5.13;;;3.00;;
34775;SDS011;20989;52.566;13.346;2023-02-10T12:01:08;6.22;;;3.10;;
34775;SDS011;20989;52.566;13.346;2023-02-10T12:11:04;7.35;;;2.97;;
34775;SDS011;20989;52.566;13.346;2023-02-10T12:14:38;9.68;;;2.90;;
34775;SDS011;20989;52.566;13.346;2023-02-10T12:18:00;6.35;;;3.28;;
34775;SDS011;20989;52.566;13.346;2023-02-10T12:28:01;4.45;;;2.80;;
34775;SDS011;20989;52.566;13.346;2023-02-10T12:31:19;3.92;;;2.80;;
34775;SDS011;20989;52.566;13.346;2023-02-10T12:38:28;8.10;;;2.80;;
34775;SDS011;20989;52.566;13.346;2023-02-10T12:45:25;6.05;;;2.22;;
34775;SDS011;20989;52.566;13.346;2023-02-10T12:52:18;3.53;;;2.63;;
34775;SDS011;20989;52.566;13.346;2023-02-10T12:55:25;2.75;;;2.55;;
34775;SDS011;20989;52.566;13.346;2023-02-10T13:01:37;6.03;;;2.53;;
34775;SDS011;20989;52.566;13.346;2023-02-10T13:04:43;2.55;;;2.35;;
34775;SDS011;20989;52.566;13.346;2023-02-10T13:07:52;8.63;;;4.38;;
34775;SDS011;20989;52.566;13.346;2023-02-10T13:10:59;3.30;;;3.00;;
34775;SDS011;20989;52.566;13.346;2023-02-10T13:14:26;4.20;;;3.25;;
34775;SDS011;20989;52.566;13.346;2023-02-10T13:17:28;4.38;;;2.70;;
34775;SDS011;20989;52.566;13.346;2023-02-10T13:31:03;3.88;;;2.97;;
34775;SDS011;20989;52.566;13.346;2023-02-10T13:34:27;5.13;;;2.60;;
34775;SDS011;20989;52.566;13.346;2023-02-10T13:37:53;8.40;;;3.42;;
34775;SDS011;20989;52.566;13.346;2023-02-10T13:40:56;5.93;;;3.03;;
34775;SDS011;20989;52.566;13.346;2023-02-10T13:44:17;7.28;;;3.55;;
34775;SDS011;20989;52.566;13.346;2023-02-10T13:47:33;4.82;;;3.10;;
34775;SDS011;20989;52.566;13.346;2023-02-10T13:50:48;4.43;;;2.97;;
34775;SDS011;20989;52.566;13.346;2023-02-10T13:53:55;3.63;;;2.42;;
34775;SDS011;20989;52.566;13.346;2023-02-10T13:56:56;2.88;;;2.50;;
34775;SDS011;20989;52.566;13.346;2023-02-10T14:00:14;6.30;;;2.88;;
34775;SDS011;20989;52.566;13.346;2023-02-10T14:03:23;3.78;;;2.45;;
34775;SDS011;20989;52.566;13.346;2023-02-10T14:06:33;4.22;;;2.78;;
34775;SDS011;20989;52.566;13.346;2023-02-10T14:09:36;3.45;;;2.50;;
34775;SDS011;20989;52.566;13.346;2023-02-10T14:12:39;4.97;;;4.35;;
34775;SDS011;20989;52.566;13.346;2023-02-10T14:15:41;12.38;;;8.45;;
34775;SDS011;20989;52.566;13.346;2023-02-10T14:18:43;14.98;;;8.55;;
34775;SDS011;20989;52.566;13.346;2023-02-10T14:21:46;12.57;;;7.45;;
34775;SDS011;20989;52.566;13.346;2023-02-10T14:24:48;12.90;;;6.15;;
34775;SDS011;20989;52.566;13.346;2023-02-10T14:27:50;7.70;;;5.40;;
34775;SDS011;20989;52.566;13.346;2023-02-10T14:30:55;20.95;;;5.95;;
34775;SDS011;20989;52.566;13.346;2023-02-10T14:33:59;9.30;;;4.47;;
34775;SDS011;20989;52.566;13.346;2023-02-10T14:37:02;11.10;;;5.28;;
34775;SDS011;20989;52.566;13.346;2023-02-10T14:40:15;11.27;;;4.88;;
34775;SDS011;20989;52.566;13.346;2023-02-10T14:43:20;11.43;;;4.13;;
34775;SDS011;20989;52.566;13.346;2023-02-10T14:49:29;11.77;;;4.57;;
34775;SDS011;20989;52.566;13.346;2023-02-10T14:52:36;13.80;;;3.92;;
34775;SDS011;20989;52.566;13.346;2023-02-10T14:55:46;8.50;;;3.83;;
34775;SDS011;20989;52.566;13.346;2023-02-10T14:58:54;5.03;;;3.95;;
34775;SDS011;20989;52.566;13.346;2023-02-10T15:01:55;9.70;;;4.43;;
34775;SDS011;20989;52.566;13.346;2023-02-10T15:04:59;10.57;;;3.97;;
34775;SDS011;20989;52.566;13.346;2023-02-10T15:08:06;8.32;;;4.03;;
34775;SDS011;20989;52.566;13.346;2023-02-10T15:11:14;8.20;;;4.00;;
34775;SDS011;20989;52.566;13.346;2023-02-10T15:15:25;4.82;;;3.50;;
34775;SDS011;20989;52.566;13.346;2023-02-10T15:18:05;4.53;;;3.58;;
34775;SDS011;20989;52.566;13.346;2023-02-10T15:21:26;5.13;;;3.33;;
34775;SDS011;20989;52.566;13.346;2023-02-10T15:24:35;7.00;;;3.45;;
34775;SDS011;20989;52.566;13.346;2023-02-10T15:27:36;3.95;;;3.35;;
34775;SDS011;20989;52.566;13.346;2023-02-10T15:30:54;5.13;;;2.58;;
34775;SDS011;20989;52.566;13.346;2023-02-10T15:33:58;10.10;;;3.08;;
34775;SDS011;20989;52.566;13.346;2023-02-10T15:37:17;4.75;;;3.13;;
34775;SDS011;20989;52.566;13.346;2023-02-10T15:40:26;4.85;;;2.90;;
34775;SDS011;20989;52.566;13.346;2023-02-10T15:43:30;6.80;;;3.17;;
34775;SDS011;20989;52.566;13.346;2023-02-10T15:46:31;4.50;;;3.13;;
34775;SDS011;20989;52.566;13.346;2023-02-10T15:49:32;4.68;;;2.67;;
34775;SDS011;20989;52.566;13.346;2023-02-10T15:52:33;4.50;;;3.10;;
34775;SDS011;20989;52.566;13.346;2023-02-10T15:55:40;6.63;;;2.80;;
34775;SDS011;20989;52.566;13.346;2023-02-10T15:58:41;9.50;;;2.83;;
34775;SDS011;20989;52.566;13.346;2023-02-10T16:01:42;5.18;;;2.75;;
34775;SDS011;20989;52.566;13.346;2023-02-10T16:04:42;5.10;;;3.05;;
34775;SDS011;20989;52.566;13.346;2023-02-10T16:07:46;6.63;;;2.42;;
34775;SDS011;20989;52.566;13.346;2023-02-10T16:10:47;4.32;;;2.50;;
34775;SDS011;20989;52.566;13.346;2023-02-10T16:13:48;2.78;;;2.50;;
34775;SDS011;20989;52.566;13.346;2023-02-10T16:16:50;6.07;;;2.92;;
34775;SDS011;20989;52.566;13.346;2023-02-10T16:19:55;16.98;;;4.90;;
34775;SDS011;20989;52.566;13.346;2023-02-10T16:22:56;12.68;;;3.88;;
34775;SDS011;20989;52.566;13.346;2023-02-10T16:25:57;10.77;;;4.30;;
34775;SDS011;20989;52.566;13.346;2023-02-10T16:28:59;11.38;;;3.40;;
34775;SDS011;20989;52.566;13.346;2023-02-10T16:31:59;7.93;;;3.22;;
34775;SDS011;20989;52.566;13.346;2023-02-10T16:35:00;5.85;;;4.05;;
34775;SDS011;20989;52.566;13.346;2023-02-10T16:38:01;5.97;;;3.10;;
34775;SDS011;20989;52.566;13.346;2023-02-10T16:41:02;5.00;;;3.65;;
34775;SDS011;20989;52.566;13.346;2023-02-10T16:44:02;18.95;;;7.03;;
34775;SDS011;20989;52.566;13.346;2023-02-10T16:47:03;16.17;;;5.57;;
34775;SDS011;20989;52.566;13.346;2023-02-10T16:50:04;16.73;;;5.28;;
34775;SDS011;20989;52.566;13.346;2023-02-10T16:53:06;9.02;;;4.22;;
34775;SDS011;20989;52.566;13.346;2023-02-10T16:56:17;9.85;;;4.40;;
34775;SDS011;20989;52.566;13.346;2023-02-10T16:59:17;11.68;;;3.80;;
34775;SDS011;20989;52.566;13.346;2023-02-10T17:02:18;7.93;;;3.75;;
34775;SDS011;20989;52.566;13.346;2023-02-10T17:05:19;11.52;;;4.10;;
34775;SDS011;20989;52.566;13.346;2023-02-10T17:08:21;7.32;;;3.90;;
34775;SDS011;20989;52.566;13.346;2023-02-10T17:11:21;10.82;;;4.20;;
34775;SDS011;20989;52.566;13.346;2023-02-10T17:14:22;19.35;;;4.93;;
34775;SDS011;20989;52.566;13.346;2023-02-10T17:17:23;5.25;;;3.28;;
34775;SDS011;20989;52.566;13.346;2023-02-10T17:20:25;6.82;;;4.20;;
34775;SDS011;20989;52.566;13.346;2023-02-10T17:23:27;6.40;;;3.28;;
34775;SDS011;20989;52.566;13.346;2023-02-10T17:26:28;9.52;;;3.75;;
34775;SDS011;20989;52.566;13.346;2023-02-10T17:29:28;3.67;;;2.80;;
34775;SDS011;20989;52.566;13.346;2023-02-10T17:32:29;4.43;;;3.70;;
34775;SDS011;20989;52.566;13.346;2023-02-10T17:35:29;10.90;;;3.88;;
34775;SDS011;20989;52.566;13.346;2023-02-10T17:38:30;7.85;;;3.28;;
34775;SDS011;20989;52.566;13.346;2023-02-10T17:41:47;6.72;;;3.13;;
34775;SDS011;20989;52.566;13.346;2023-02-10T17:44:50;6.07;;;3.25;;
34775;SDS011;20989;52.566;13.346;2023-02-10T17:47:50;8.27;;;2.80;;
34775;SDS011;20989;52.566;13.346;2023-02-10T17:50:51;4.32;;;3.15;;
34775;SDS011;20989;52.566;13.346;2023-02-10T17:53:53;4.32;;;2.92;;
34775;SDS011;20989;52.566;13.346;2023-02-10T17:56:53;3.75;;;3.25;;
34775;SDS011;20989;52.566;13.346;2023-02-10T17:59:54;6.20;;;2.95;;
34775;SDS011;20989;52.566;13.346;2023-02-10T18:02:55;4.65;;;3.17;;
34775;SDS011;20989;52.566;13.346;2023-02-10T18:05:56;3.83;;;2.95;;
34775;SDS011;20989;52.566;13.346;2023-02-10T18:08:59;7.32;;;2.75;;
34775;SDS011;20989;52.566;13.346;2023-02-10T18:12:00;3.22;;;2.90;;
34775;SDS011;20989;52.566;13.346;2023-02-10T18:15:02;5.45;;;2.78;;
34775;SDS011;20989;52.566;13.346;2023-02-10T18:18:03;4.80;;;3.25;;
34775;SDS011;20989;52.566;13.346;2023-02-10T18:21:04;3.15;;;2.40;;
34775;SDS011;20989;52.566;13.346;2023-02-10T18:24:05;3.60;;;2.63;;
34775;SDS011;20989;52.566;13.346;2023-02-10T18:27:06;4.05;;;3.00;;
34775;SDS011;20989;52.566;13.346;2023-02-10T18:30:07;4.22;;;2.72;;
34775;SDS011;20989;52.566;13.346;2023-02-10T18:33:09;4.32;;;2.60;;
34775;SDS011;20989;52.566;13.346;2023-02-10T18:36:13;4.50;;;2.95;;
34775;SDS011;20989;52.566;13.346;2023-02-10T18:39:15;4.88;;;3.35;;
34775;SDS011;20989;52.566;13.346;2023-02-10T18:42:16;3.80;;;3.40;;
34775;SDS011;20989;52.566;13.346;2023-02-10T18:45:16;6.40;;;3.05;;
34775;SDS011;20989;52.566;13.346;2023-02-10T18:48:17;5.82;;;3.05;;
34775;SDS011;20989;52.566;13.346;2023-02-10T18:51:18;5.38;;;3.28;;
34775;SDS011;20989;52.566;13.346;2023-02-10T18:54:20;4.43;;;3.80;;
34775;SDS011;20989;52.566;13.346;2023-02-10T18:57:22;3.92;;;2.75;;
34775;SDS011;20989;52.566;13.346;2023-02-10T19:00:22;4.22;;;3.22;;
34775;SDS011;20989;52.566;13.346;2023-02-10T19:03:23;9.15;;;3.20;;
34775;SDS011;20989;52.566;13.346;2023-02-10T19:06:23;4.78;;;2.78;;
34775;SDS011;20989;52.566;13.346;2023-02-10T19:09:24;6.35;;;3.03;;
34775;SDS011;20989;52.566;13.346;2023-02-10T19:12:24;6.97;;;3.30;;
34775;SDS011;20989;52.566;13.346;2023-02-10T19:15:25;5.28;;;2.78;;
34775;SDS011;20989;52.566;13.346;2023-02-10T19:18:26;2.83;;;2.63;;
34775;SDS011;20989;52.566;13.346;2023-02-10T19:21:26;6.25;;;3.20;;
34775;SDS011;20989;52.566;13.346;2023-02-10T19:24:27;3.60;;;2.80;;
34775;SDS011;20989;52.566;13.346;2023-02-10T19:27:28;6.22;;;3.20;;
34775;SDS011;20989;52.566;13.346;2023-02-10T19:30:28;2.83;;;2.50;;
34775;SDS011;20989;52.566;13.346;2023-02-10T19:33:29;8.02;;;2.92;;
34775;SDS011;20989;52.566;13.346;2023-02-10T19:36:30;9.18;;;2.50;;
34775;SDS011;20989;52.566;13.346;2023-02-10T19:39:30;6.72;;;4.03;;
34775;SDS011;20989;52.566;13.346;2023-02-10T19:42:32;4.38;;;3.22;;